sensor_id;sensor_type;location;lat;lon;timestamp;temperature;humidity
41447;DHT22;27185;52.040;4.490;2022-10-22T00:00:45;16.10;99.90
41447;DHT22;27185;52.040;4.490;2022-10-22T00:03:31;16.10;99.90
41447;DHT22;27185;52.040;4.490;2022-10-22T00:06:16;16.00;99.90
41447;DHT22;27185;52.040;4.490;2022-10-22T00:09:03;16.00;99.90
41447;DHT22;27185;52.040;4.490;2022-10-22T00:11:49;15.90;99.90
41447;DHT22;27185;52.040;4.490;2022-10-22T00:14:35;15.90;99.90
41447;DHT22;27185;52.040;4.490;2022-10-22T00:17:20;15.90;99.90
41447;DHT22;27185;52.040;4.490;2022-10-22T00:20:06;15.80;99.90
41447;DHT22;27185;52.040;4.490;2022-10-22T00:22:52;15.80;99.90
41447;DHT22;27185;52.040;4.490;2022-10-22T00:25:37;15.80;99.90
41447;DHT22;27185;52.040;4.490;2022-10-22T00:28:23;15.80;99.90
41447;DHT22;27185;52.040;4.490;2022-10-22T00:31:09;15.80;99.90
41447;DHT22;27185;52.040;4.490;2022-10-22T00:33:54;15.80;99.90
41447;DHT22;27185;52.040;4.490;2022-10-22T00:36:40;15.80;99.90
41447;DHT22;27185;52.040;4.490;2022-10-22T00:39:26;15.80;99.90
41447;DHT22;27185;52.040;4.490;2022-10-22T00:42:19;15.80;99.90
41447;DHT22;27185;52.040;4.490;2022-10-22T00:48:09;16.00;99.90
41447;DHT22;27185;52.040;4.490;2022-10-22T00:51:03;16.00;99.90
41447;DHT22;27185;52.040;4.490;2022-10-22T00:53:52;16.10;99.90
41447;DHT22;27185;52.040;4.490;2022-10-22T00:56:40;16.20;99.90
41447;DHT22;27185;52.040;4.490;2022-10-22T00:59:27;16.20;99.90
41447;DHT22;27185;52.040;4.490;2022-10-22T01:02:13;16.40;99.90
41447;DHT22;27185;52.040;4.490;2022-10-22T01:04:59;16.40;99.90
41447;DHT22;27185;52.040;4.490;2022-10-22T01:07:47;16.50;99.90
41447;DHT22;27185;52.040;4.490;2022-10-22T01:10:53;16.60;99.90
41447;DHT22;27185;52.040;4.490;2022-10-22T01:13:48;16.70;99.90
41447;DHT22;27185;52.040;4.490;2022-10-22T01:16:47;16.70;99.90
41447;DHT22;27185;52.040;4.490;2022-10-22T01:26:11;16.90;99.90
41447;DHT22;27185;52.040;4.490;2022-10-22T01:31:59;16.90;99.90
41447;DHT22;27185;52.040;4.490;2022-10-22T01:34:49;17.00;99.90
41447;DHT22;27185;52.040;4.490;2022-10-22T01:38:00;17.00;99.90
41447;DHT22;27185;52.040;4.490;2022-10-22T01:40:47;17.00;99.90
41447;DHT22;27185;52.040;4.490;2022-10-22T01:43:32;17.00;99.90
41447;DHT22;27185;52.040;4.490;2022-10-22T01:46:21;17.00;99.90
41447;DHT22;27185;52.040;4.490;2022-10-22T01:49:21;17.00;99.90
41447;DHT22;27185;52.040;4.490;2022-10-22T01:52:48;17.00;99.90
41447;DHT22;27185;52.040;4.490;2022-10-22T02:01:40;17.00;99.90
41447;DHT22;27185;52.040;4.490;2022-10-22T02:04:33;17.00;99.90
41447;DHT22;27185;52.040;4.490;2022-10-22T02:07:22;17.00;99.90
41447;DHT22;27185;52.040;4.490;2022-10-22T02:10:11;16.90;99.90
41447;DHT22;27185;52.040;4.490;2022-10-22T02:12:58;16.90;99.90
41447;DHT22;27185;52.040;4.490;2022-10-22T02:15:45;16.90;99.90
41447;DHT22;27185;52.040;4.490;2022-10-22T02:18:35;16.90;99.90
41447;DHT22;27185;52.040;4.490;2022-10-22T02:21:22;16.90;99.90
41447;DHT22;27185;52.040;4.490;2022-10-22T02:24:08;16.90;99.90
41447;DHT22;27185;52.040;4.490;2022-10-22T02:32:42;17.00;99.90
41447;DHT22;27185;52.040;4.490;2022-10-22T02:35:29;17.00;99.90
41447;DHT22;27185;52.040;4.490;2022-10-22T02:38:15;17.00;99.90
41447;DHT22;27185;52.040;4.490;2022-10-22T02:41:02;17.00;99.90
41447;DHT22;27185;52.040;4.490;2022-10-22T02:43:51;17.00;99.90
41447;DHT22;27185;52.040;4.490;2022-10-22T02:46:38;17.00;99.90
41447;DHT22;27185;52.040;4.490;2022-10-22T02:49:24;17.00;99.90
41447;DHT22;27185;52.040;4.490;2022-10-22T02:52:10;17.00;99.90
41447;DHT22;27185;52.040;4.490;2022-10-22T02:54:56;17.00;99.90
41447;DHT22;27185;52.040;4.490;2022-10-22T02:57:41;17.00;99.90
41447;DHT22;27185;52.040;4.490;2022-10-22T03:00:27;17.00;99.90
41447;DHT22;27185;52.040;4.490;2022-10-22T03:03:13;17.00;99.90
41447;DHT22;27185;52.040;4.490;2022-10-22T03:05:58;17.00;99.90
41447;DHT22;27185;52.040;4.490;2022-10-22T03:08:44;17.00;99.90
41447;DHT22;27185;52.040;4.490;2022-10-22T03:11:30;17.00;99.90
41447;DHT22;27185;52.040;4.490;2022-10-22T03:14:15;16.90;99.90
41447;DHT22;27185;52.040;4.490;2022-10-22T03:17:01;16.90;99.90
41447;DHT22;27185;52.040;4.490;2022-10-22T03:19:47;16.90;99.90
41447;DHT22;27185;52.040;4.490;2022-10-22T03:22:33;16.90;99.90
41447;DHT22;27185;52.040;4.490;2022-10-22T03:25:22;16.90;99.90
41447;DHT22;27185;52.040;4.490;2022-10-22T03:28:09;16.90;99.90
41447;DHT22;27185;52.040;4.490;2022-10-22T03:30:55;16.90;99.90
41447;DHT22;27185;52.040;4.490;2022-10-22T03:33:41;16.90;99.90
41447;DHT22;27185;52.040;4.490;2022-10-22T03:36:27;16.90;99.90
41447;DHT22;27185;52.040;4.490;2022-10-22T03:39:13;16.90;99.90
41447;DHT22;27185;52.040;4.490;2022-10-22T03:42:01;16.90;99.90
41447;DHT22;27185;52.040;4.490;2022-10-22T03:44:47;16.90;99.90
41447;DHT22;27185;52.040;4.490;2022-10-22T03:47:33;17.00;99.90
41447;DHT22;27185;52.040;4.490;2022-10-22T03:50:18;16.90;99.90
41447;DHT22;27185;52.040;4.490;2022-10-22T03:53:04;17.00;99.90
41447;DHT22;27185;52.040;4.490;2022-10-22T03:55:51;17.00;99.90
41447;DHT22;27185;52.040;4.490;2022-10-22T03:58:38;17.10;99.90
41447;DHT22;27185;52.040;4.490;2022-10-22T04:01:25;17.10;99.90
41447;DHT22;27185;52.040;4.490;2022-10-22T04:04:11;17.10;99.90
41447;DHT22;27185;52.040;4.490;2022-10-22T04:06:57;17.20;99.90
41447;DHT22;27185;52.040;4.490;2022-10-22T04:09:42;17.20;99.90
41447;DHT22;27185;52.040;4.490;2022-10-22T04:12:28;17.20;99.90
41447;DHT22;27185;52.040;4.490;2022-10-22T04:15:13;17.20;99.90
41447;DHT22;27185;52.040;4.490;2022-10-22T04:17:59;17.10;99.90
41447;DHT22;27185;52.040;4.490;2022-10-22T04:20:45;17.20;99.90
41447;DHT22;27185;52.040;4.490;2022-10-22T04:23:30;17.20;99.90
41447;DHT22;27185;52.040;4.490;2022-10-22T04:26:17;17.20;99.90
41447;DHT22;27185;52.040;4.490;2022-10-22T04:29:05;17.20;99.90
41447;DHT22;27185;52.040;4.490;2022-10-22T04:31:51;17.20;99.90
41447;DHT22;27185;52.040;4.490;2022-10-22T04:34:36;17.20;99.90
41447;DHT22;27185;52.040;4.490;2022-10-22T04:37:22;17.20;99.90
41447;DHT22;27185;52.040;4.490;2022-10-22T04:40:08;17.20;99.90
41447;DHT22;27185;52.040;4.490;2022-10-22T04:42:54;17.20;99.90
41447;DHT22;27185;52.040;4.490;2022-10-22T04:45:40;17.20;99.90
41447;DHT22;27185;52.040;4.490;2022-10-22T04:48:26;17.20;99.90
41447;DHT22;27185;52.040;4.490;2022-10-22T04:51:14;17.20;99.90
41447;DHT22;27185;52.040;4.490;2022-10-22T04:54:00;17.10;99.90
41447;DHT22;27185;52.040;4.490;2022-10-22T04:56:46;17.10;99.90
41447;DHT22;27185;52.040;4.490;2022-10-22T04:59:31;17.10;99.90
41447;DHT22;27185;52.040;4.490;2022-10-22T05:02:17;17.10;99.90
41447;DHT22;27185;52.040;4.490;2022-10-22T05:05:03;17.00;99.90
41447;DHT22;27185;52.040;4.490;2022-10-22T05:07:50;17.00;99.90
41447;DHT22;27185;52.040;4.490;2022-10-22T05:10:36;16.90;99.90
41447;DHT22;27185;52.040;4.490;2022-10-22T05:13:22;16.80;99.90
41447;DHT22;27185;52.040;4.490;2022-10-22T05:16:10;16.80;99.90
41447;DHT22;27185;52.040;4.490;2022-10-22T05:18:58;16.80;99.90
41447;DHT22;27185;52.040;4.490;2022-10-22T05:21:43;16.70;99.90
41447;DHT22;27185;52.040;4.490;2022-10-22T05:24:30;16.70;99.90
41447;DHT22;27185;52.040;4.490;2022-10-22T05:27:16;16.60;99.90
41447;DHT22;27185;52.040;4.490;2022-10-22T05:30:02;16.60;99.90
41447;DHT22;27185;52.040;4.490;2022-10-22T05:32:48;16.60;99.90
41447;DHT22;27185;52.040;4.490;2022-10-22T05:35:34;16.70;99.90
41447;DHT22;27185;52.040;4.490;2022-10-22T05:38:20;16.70;99.90
41447;DHT22;27185;52.040;4.490;2022-10-22T05:41:08;16.70;99.90
41447;DHT22;27185;52.040;4.490;2022-10-22T05:43:57;16.80;99.90
41447;DHT22;27185;52.040;4.490;2022-10-22T05:46:42;16.80;99.90
41447;DHT22;27185;52.040;4.490;2022-10-22T05:49:28;16.90;99.90
41447;DHT22;27185;52.040;4.490;2022-10-22T05:52:14;16.80;99.90
41447;DHT22;27185;52.040;4.490;2022-10-22T05:55:00;16.90;99.90
41447;DHT22;27185;52.040;4.490;2022-10-22T05:57:45;16.90;99.90
41447;DHT22;27185;52.040;4.490;2022-10-22T06:00:33;16.90;99.90
41447;DHT22;27185;52.040;4.490;2022-10-22T06:03:19;16.90;99.90
41447;DHT22;27185;52.040;4.490;2022-10-22T06:06:16;16.90;99.90
41447;DHT22;27185;52.040;4.490;2022-10-22T06:09:26;16.90;99.90
41447;DHT22;27185;52.040;4.490;2022-10-22T06:12:12;17.00;99.90
41447;DHT22;27185;52.040;4.490;2022-10-22T06:14:58;16.90;99.90
41447;DHT22;27185;52.040;4.490;2022-10-22T06:17:44;17.00;99.90
41447;DHT22;27185;52.040;4.490;2022-10-22T06:20:33;17.00;99.90
41447;DHT22;27185;52.040;4.490;2022-10-22T06:23:18;17.00;99.90
41447;DHT22;27185;52.040;4.490;2022-10-22T06:26:05;17.00;99.90
41447;DHT22;27185;52.040;4.490;2022-10-22T06:28:51;17.10;99.90
41447;DHT22;27185;52.040;4.490;2022-10-22T06:31:37;17.00;99.90
41447;DHT22;27185;52.040;4.490;2022-10-22T06:34:23;17.10;99.90
41447;DHT22;27185;52.040;4.490;2022-10-22T06:37:09;17.10;99.90
41447;DHT22;27185;52.040;4.490;2022-10-22T06:39:55;17.10;99.90
41447;DHT22;27185;52.040;4.490;2022-10-22T06:42:41;17.20;99.90
41447;DHT22;27185;52.040;4.490;2022-10-22T06:45:26;17.20;99.90
41447;DHT22;27185;52.040;4.490;2022-10-22T06:48:12;17.20;99.90
41447;DHT22;27185;52.040;4.490;2022-10-22T06:51:03;17.20;99.90
41447;DHT22;27185;52.040;4.490;2022-10-22T06:53:49;17.20;99.90
41447;DHT22;27185;52.040;4.490;2022-10-22T06:56:35;17.30;99.90
41447;DHT22;27185;52.040;4.490;2022-10-22T06:59:21;17.30;99.90
41447;DHT22;27185;52.040;4.490;2022-10-22T07:02:08;17.40;99.90
41447;DHT22;27185;52.040;4.490;2022-10-22T07:04:54;17.40;99.90
41447;DHT22;27185;52.040;4.490;2022-10-22T07:07:40;17.40;99.90
41447;DHT22;27185;52.040;4.490;2022-10-22T07:10:26;17.40;99.90
41447;DHT22;27185;52.040;4.490;2022-10-22T07:13:11;17.40;99.90
41447;DHT22;27185;52.040;4.490;2022-10-22T07:15:57;17.40;99.90
41447;DHT22;27185;52.040;4.490;2022-10-22T07:18:43;17.40;99.90
41447;DHT22;27185;52.040;4.490;2022-10-22T07:21:29;17.40;99.90
41447;DHT22;27185;52.040;4.490;2022-10-22T07:24:15;17.40;99.90
41447;DHT22;27185;52.040;4.490;2022-10-22T07:27:01;17.40;99.90
41447;DHT22;27185;52.040;4.490;2022-10-22T07:29:49;17.40;99.90
41447;DHT22;27185;52.040;4.490;2022-10-22T07:32:35;17.40;99.90
41447;DHT22;27185;52.040;4.490;2022-10-22T07:35:21;17.40;99.90
41447;DHT22;27185;52.040;4.490;2022-10-22T07:38:07;17.30;99.90
41447;DHT22;27185;52.040;4.490;2022-10-22T07:40:53;17.30;99.90
41447;DHT22;27185;52.040;4.490;2022-10-22T07:43:39;17.40;99.90
41447;DHT22;27185;52.040;4.490;2022-10-22T07:46:25;17.40;99.90
41447;DHT22;27185;52.040;4.490;2022-10-22T07:49:11;17.40;99.90
41447;DHT22;27185;52.040;4.490;2022-10-22T07:51:56;17.50;99.90
41447;DHT22;27185;52.040;4.490;2022-10-22T07:54:42;17.60;99.90
41447;DHT22;27185;52.040;4.490;2022-10-22T07:57:28;17.70;99.90
41447;DHT22;27185;52.040;4.490;2022-10-22T08:00:14;17.70;99.90
41447;DHT22;27185;52.040;4.490;2022-10-22T08:02:59;17.80;99.90
41447;DHT22;27185;52.040;4.490;2022-10-22T08:05:45;17.70;99.90
41447;DHT22;27185;52.040;4.490;2022-10-22T08:08:31;17.80;99.90
41447;DHT22;27185;52.040;4.490;2022-10-22T08:11:17;17.80;99.90
41447;DHT22;27185;52.040;4.490;2022-10-22T08:14:03;17.80;99.90
41447;DHT22;27185;52.040;4.490;2022-10-22T08:16:49;17.90;99.90
41447;DHT22;27185;52.040;4.490;2022-10-22T08:19:34;17.80;99.90
41447;DHT22;27185;52.040;4.490;2022-10-22T08:22:20;17.90;99.90
41447;DHT22;27185;52.040;4.490;2022-10-22T08:25:10;17.90;99.90
41447;DHT22;27185;52.040;4.490;2022-10-22T08:27:56;17.90;99.90
41447;DHT22;27185;52.040;4.490;2022-10-22T08:30:42;17.90;99.90
41447;DHT22;27185;52.040;4.490;2022-10-22T08:33:29;17.80;99.90
41447;DHT22;27185;52.040;4.490;2022-10-22T08:36:14;17.80;99.90
41447;DHT22;27185;52.040;4.490;2022-10-22T08:39:00;17.80;99.90
41447;DHT22;27185;52.040;4.490;2022-10-22T08:42:03;17.80;99.90
41447;DHT22;27185;52.040;4.490;2022-10-22T08:45:12;17.80;99.90
41447;DHT22;27185;52.040;4.490;2022-10-22T08:48:24;17.80;99.90
41447;DHT22;27185;52.040;4.490;2022-10-22T08:51:18;17.90;99.90
41447;DHT22;27185;52.040;4.490;2022-10-22T08:54:14;17.90;99.90
41447;DHT22;27185;52.040;4.490;2022-10-22T09:06:02;18.10;99.90
41447;DHT22;27185;52.040;4.490;2022-10-22T09:08:51;18.10;99.90
41447;DHT22;27185;52.040;4.490;2022-10-22T09:11:39;18.10;99.90
41447;DHT22;27185;52.040;4.490;2022-10-22T09:14:25;18.20;99.90
41447;DHT22;27185;52.040;4.490;2022-10-22T09:17:44;18.10;99.90
41447;DHT22;27185;52.040;4.490;2022-10-22T09:20:49;18.30;99.90
41447;DHT22;27185;52.040;4.490;2022-10-22T09:26:42;18.60;99.90
41447;DHT22;27185;52.040;4.490;2022-10-22T09:29:32;18.70;99.90
41447;DHT22;27185;52.040;4.490;2022-10-22T09:32:18;18.80;99.90
41447;DHT22;27185;52.040;4.490;2022-10-22T09:35:09;18.90;99.90
41447;DHT22;27185;52.040;4.490;2022-10-22T09:37:56;18.90;99.90
41447;DHT22;27185;52.040;4.490;2022-10-22T09:40:49;18.90;99.90
41447;DHT22;27185;52.040;4.490;2022-10-22T09:43:35;19.00;99.90
41447;DHT22;27185;52.040;4.490;2022-10-22T09:46:26;19.10;99.90
41447;DHT22;27185;52.040;4.490;2022-10-22T09:49:17;19.20;99.90
41447;DHT22;27185;52.040;4.490;2022-10-22T09:52:25;19.20;99.90
41447;DHT22;27185;52.040;4.490;2022-10-22T09:55:15;19.30;99.90
41447;DHT22;27185;52.040;4.490;2022-10-22T09:58:10;19.30;99.90
41447;DHT22;27185;52.040;4.490;2022-10-22T10:01:24;19.30;99.90
41447;DHT22;27185;52.040;4.490;2022-10-22T10:04:14;19.40;99.90
41447;DHT22;27185;52.040;4.490;2022-10-22T10:07:00;19.40;99.90
41447;DHT22;27185;52.040;4.490;2022-10-22T10:09:46;19.40;99.90
41447;DHT22;27185;52.040;4.490;2022-10-22T10:12:45;19.50;99.90
41447;DHT22;27185;52.040;4.490;2022-10-22T10:15:56;19.50;99.90
41447;DHT22;27185;52.040;4.490;2022-10-22T10:25:22;19.60;98.50
41447;DHT22;27185;52.040;4.490;2022-10-22T10:28:38;19.70;99.40
41447;DHT22;27185;52.040;4.490;2022-10-22T10:32:04;19.70;98.00
41447;DHT22;27185;52.040;4.490;2022-10-22T10:35:16;19.70;98.00
41447;DHT22;27185;52.040;4.490;2022-10-22T11:00:43;20.10;95.90
41447;DHT22;27185;52.040;4.490;2022-10-22T11:06:20;20.20;96.20
41447;DHT22;27185;52.040;4.490;2022-10-22T11:09:17;20.20;96.40
41447;DHT22;27185;52.040;4.490;2022-10-22T11:12:09;20.20;95.70
41447;DHT22;27185;52.040;4.490;2022-10-22T11:17:52;20.30;95.40
41447;DHT22;27185;52.040;4.490;2022-10-22T11:20:49;20.20;95.50
41447;DHT22;27185;52.040;4.490;2022-10-22T11:23:59;20.30;95.50
41447;DHT22;27185;52.040;4.490;2022-10-22T11:29:42;20.30;95.40
41447;DHT22;27185;52.040;4.490;2022-10-22T11:32:30;20.30;95.50
41447;DHT22;27185;52.040;4.490;2022-10-22T11:35:24;20.30;95.30
41447;DHT22;27185;52.040;4.490;2022-10-22T11:38:21;20.20;94.40
41447;DHT22;27185;52.040;4.490;2022-10-22T11:41:22;20.20;94.60
41447;DHT22;27185;52.040;4.490;2022-10-22T11:44:18;20.20;95.00
41447;DHT22;27185;52.040;4.490;2022-10-22T11:47:17;20.30;95.80
41447;DHT22;27185;52.040;4.490;2022-10-22T11:50:24;20.30;94.80
41447;DHT22;27185;52.040;4.490;2022-10-22T11:56:21;20.50;95.30
41447;DHT22;27185;52.040;4.490;2022-10-22T11:59:38;20.60;94.30
41447;DHT22;27185;52.040;4.490;2022-10-22T12:08:22;21.10;94.30
41447;DHT22;27185;52.040;4.490;2022-10-22T12:19:36;21.70;94.00
41447;DHT22;27185;52.040;4.490;2022-10-22T12:22:26;21.70;93.40
41447;DHT22;27185;52.040;4.490;2022-10-22T12:25:29;21.70;94.00
41447;DHT22;27185;52.040;4.490;2022-10-22T12:28:14;21.90;93.30
41447;DHT22;27185;52.040;4.490;2022-10-22T12:31:00;22.00;93.80
41447;DHT22;27185;52.040;4.490;2022-10-22T12:33:46;22.20;93.90
41447;DHT22;27185;52.040;4.490;2022-10-22T12:36:33;22.40;93.90
41447;DHT22;27185;52.040;4.490;2022-10-22T12:39:24;22.60;93.50
41447;DHT22;27185;52.040;4.490;2022-10-22T12:42:13;22.80;92.50
41447;DHT22;27185;52.040;4.490;2022-10-22T12:44:59;23.00;92.40
41447;DHT22;27185;52.040;4.490;2022-10-22T12:47:50;23.20;92.40
41447;DHT22;27185;52.040;4.490;2022-10-22T12:50:41;23.50;91.50
41447;DHT22;27185;52.040;4.490;2022-10-22T12:53:38;23.60;90.20
41447;DHT22;27185;52.040;4.490;2022-10-22T12:56:30;23.70;90.00
41447;DHT22;27185;52.040;4.490;2022-10-22T12:59:20;23.70;90.50
41447;DHT22;27185;52.040;4.490;2022-10-22T13:02:19;23.70;89.80
41447;DHT22;27185;52.040;4.490;2022-10-22T13:05:29;23.60;88.00
41447;DHT22;27185;52.040;4.490;2022-10-22T13:08:21;23.40;87.30
41447;DHT22;27185;52.040;4.490;2022-10-22T13:11:10;23.40;88.00
41447;DHT22;27185;52.040;4.490;2022-10-22T13:14:26;23.40;89.80
41447;DHT22;27185;52.040;4.490;2022-10-22T13:17:13;23.30;87.30
41447;DHT22;27185;52.040;4.490;2022-10-22T13:20:00;23.10;89.60
41447;DHT22;27185;52.040;4.490;2022-10-22T13:23:16;23.00;89.70
41447;DHT22;27185;52.040;4.490;2022-10-22T13:28:55;23.00;89.60
41447;DHT22;27185;52.040;4.490;2022-10-22T13:31:52;23.10;91.10
41447;DHT22;27185;52.040;4.490;2022-10-22T13:34:38;23.20;88.70
41447;DHT22;27185;52.040;4.490;2022-10-22T13:37:24;23.40;90.40
41447;DHT22;27185;52.040;4.490;2022-10-22T13:40:11;23.40;89.00
41447;DHT22;27185;52.040;4.490;2022-10-22T13:42:57;23.30;89.10
41447;DHT22;27185;52.040;4.490;2022-10-22T13:45:43;23.30;89.80
41447;DHT22;27185;52.040;4.490;2022-10-22T13:48:29;23.10;88.80
41447;DHT22;27185;52.040;4.490;2022-10-22T13:51:21;22.80;89.30
41447;DHT22;27185;52.040;4.490;2022-10-22T13:54:15;22.50;89.80
41447;DHT22;27185;52.040;4.490;2022-10-22T13:57:07;22.20;89.70
41447;DHT22;27185;52.040;4.490;2022-10-22T13:59:53;22.00;90.90
41447;DHT22;27185;52.040;4.490;2022-10-22T14:02:39;21.80;91.50
41447;DHT22;27185;52.040;4.490;2022-10-22T14:05:25;21.70;91.90
41447;DHT22;27185;52.040;4.490;2022-10-22T14:08:12;21.70;91.90
41447;DHT22;27185;52.040;4.490;2022-10-22T14:10:58;21.70;91.80
41447;DHT22;27185;52.040;4.490;2022-10-22T14:13:44;21.60;91.50
41447;DHT22;27185;52.040;4.490;2022-10-22T14:16:30;21.60;91.70
41447;DHT22;27185;52.040;4.490;2022-10-22T14:19:17;21.50;92.00
41447;DHT22;27185;52.040;4.490;2022-10-22T14:22:03;21.40;92.30
41447;DHT22;27185;52.040;4.490;2022-10-22T14:24:49;21.40;92.50
41447;DHT22;27185;52.040;4.490;2022-10-22T14:27:36;21.30;92.70
41447;DHT22;27185;52.040;4.490;2022-10-22T14:30:24;21.30;93.30
41447;DHT22;27185;52.040;4.490;2022-10-22T14:36:03;21.40;92.40
41447;DHT22;27185;52.040;4.490;2022-10-22T14:38:48;21.50;92.90
41447;DHT22;27185;52.040;4.490;2022-10-22T14:41:34;21.50;92.70
41447;DHT22;27185;52.040;4.490;2022-10-22T14:44:22;21.60;92.60
41447;DHT22;27185;52.040;4.490;2022-10-22T14:47:08;21.70;92.60
41447;DHT22;27185;52.040;4.490;2022-10-22T14:49:54;21.80;91.40
41447;DHT22;27185;52.040;4.490;2022-10-22T14:52:40;21.80;92.40
41447;DHT22;27185;52.040;4.490;2022-10-22T14:55:27;21.70;92.60
41447;DHT22;27185;52.040;4.490;2022-10-22T14:58:13;21.70;92.90
41447;DHT22;27185;52.040;4.490;2022-10-22T15:01:01;21.80;93.00
41447;DHT22;27185;52.040;4.490;2022-10-22T15:03:46;21.90;92.70
41447;DHT22;27185;52.040;4.490;2022-10-22T15:06:32;21.90;92.50
41447;DHT22;27185;52.040;4.490;2022-10-22T15:09:18;22.00;92.00
41447;DHT22;27185;52.040;4.490;2022-10-22T15:12:03;22.00;91.50
41447;DHT22;27185;52.040;4.490;2022-10-22T15:14:49;21.90;91.10
41447;DHT22;27185;52.040;4.490;2022-10-22T15:17:35;21.80;91.10
41447;DHT22;27185;52.040;4.490;2022-10-22T15:20:20;21.60;91.20
41447;DHT22;27185;52.040;4.490;2022-10-22T15:23:06;21.60;91.60
41447;DHT22;27185;52.040;4.490;2022-10-22T15:25:52;21.40;91.70
41447;DHT22;27185;52.040;4.490;2022-10-22T15:28:38;21.40;92.10
41447;DHT22;27185;52.040;4.490;2022-10-22T15:31:48;21.30;92.00
41447;DHT22;27185;52.040;4.490;2022-10-22T15:34:35;21.20;91.70
41447;DHT22;27185;52.040;4.490;2022-10-22T15:37:21;21.10;92.40
41447;DHT22;27185;52.040;4.490;2022-10-22T15:40:07;20.90;92.50
41447;DHT22;27185;52.040;4.490;2022-10-22T15:42:53;20.80;92.70
41447;DHT22;27185;52.040;4.490;2022-10-22T15:45:38;20.60;92.90
41447;DHT22;27185;52.040;4.490;2022-10-22T15:48:24;20.50;93.20
41447;DHT22;27185;52.040;4.490;2022-10-22T15:51:11;20.30;93.40
41447;DHT22;27185;52.040;4.490;2022-10-22T15:53:58;20.20;93.70
41447;DHT22;27185;52.040;4.490;2022-10-22T15:56:44;20.00;93.90
41447;DHT22;27185;52.040;4.490;2022-10-22T15:59:29;19.90;94.10
41447;DHT22;27185;52.040;4.490;2022-10-22T16:02:15;19.80;94.30
41447;DHT22;27185;52.040;4.490;2022-10-22T16:05:01;19.60;94.50
41447;DHT22;27185;52.040;4.490;2022-10-22T16:07:46;19.50;94.80
41447;DHT22;27185;52.040;4.490;2022-10-22T16:10:32;19.40;95.00
41447;DHT22;27185;52.040;4.490;2022-10-22T16:13:18;19.20;95.20
41447;DHT22;27185;52.040;4.490;2022-10-22T16:16:06;19.20;95.40
41447;DHT22;27185;52.040;4.490;2022-10-22T16:18:54;19.00;95.50
41447;DHT22;27185;52.040;4.490;2022-10-22T16:21:41;18.90;95.70
41447;DHT22;27185;52.040;4.490;2022-10-22T16:24:26;18.80;95.90
41447;DHT22;27185;52.040;4.490;2022-10-22T16:27:12;18.70;96.00
41447;DHT22;27185;52.040;4.490;2022-10-22T16:29:58;18.60;96.10
41447;DHT22;27185;52.040;4.490;2022-10-22T16:32:43;18.50;96.30
41447;DHT22;27185;52.040;4.490;2022-10-22T16:35:29;18.40;96.40
41447;DHT22;27185;52.040;4.490;2022-10-22T16:38:14;18.30;96.60
41447;DHT22;27185;52.040;4.490;2022-10-22T16:41:10;18.20;96.80
41447;DHT22;27185;52.040;4.490;2022-10-22T16:43:57;18.10;97.10
41447;DHT22;27185;52.040;4.490;2022-10-22T16:46:45;18.00;97.10
41447;DHT22;27185;52.040;4.490;2022-10-22T16:49:30;17.90;97.60
41447;DHT22;27185;52.040;4.490;2022-10-22T16:52:16;17.80;97.50
41447;DHT22;27185;52.040;4.490;2022-10-22T16:55:02;17.70;97.70
41447;DHT22;27185;52.040;4.490;2022-10-22T16:57:51;17.60;97.90
41447;DHT22;27185;52.040;4.490;2022-10-22T17:00:37;17.50;98.10
41447;DHT22;27185;52.040;4.490;2022-10-22T17:03:23;17.40;98.20
41447;DHT22;27185;52.040;4.490;2022-10-22T17:06:09;17.30;98.40
41447;DHT22;27185;52.040;4.490;2022-10-22T17:08:56;17.30;98.60
41447;DHT22;27185;52.040;4.490;2022-10-22T17:11:42;17.20;98.70
41447;DHT22;27185;52.040;4.490;2022-10-22T17:14:27;17.10;98.90
41447;DHT22;27185;52.040;4.490;2022-10-22T17:17:13;17.00;99.00
41447;DHT22;27185;52.040;4.490;2022-10-22T17:19:58;16.90;99.10
41447;DHT22;27185;52.040;4.490;2022-10-22T17:22:44;16.90;99.20
41447;DHT22;27185;52.040;4.490;2022-10-22T17:25:43;16.80;99.30
41447;DHT22;27185;52.040;4.490;2022-10-22T17:28:29;16.80;99.80
41447;DHT22;27185;52.040;4.490;2022-10-22T17:31:27;16.70;99.60
41447;DHT22;27185;52.040;4.490;2022-10-22T17:34:15;16.70;99.90
41447;DHT22;27185;52.040;4.490;2022-10-22T17:37:01;16.60;99.90
41447;DHT22;27185;52.040;4.490;2022-10-22T17:39:47;16.60;99.90
41447;DHT22;27185;52.040;4.490;2022-10-22T17:42:33;16.50;99.90
41447;DHT22;27185;52.040;4.490;2022-10-22T17:45:18;16.50;99.90
41447;DHT22;27185;52.040;4.490;2022-10-22T17:48:04;16.40;99.90
41447;DHT22;27185;52.040;4.490;2022-10-22T17:50:50;16.40;99.90
41447;DHT22;27185;52.040;4.490;2022-10-22T17:53:39;16.40;99.90
41447;DHT22;27185;52.040;4.490;2022-10-22T17:56:27;16.40;99.90
41447;DHT22;27185;52.040;4.490;2022-10-22T17:59:14;16.30;99.90
41447;DHT22;27185;52.040;4.490;2022-10-22T18:02:01;16.30;99.90
41447;DHT22;27185;52.040;4.490;2022-10-22T18:04:51;16.30;99.90
41447;DHT22;27185;52.040;4.490;2022-10-22T18:07:36;16.20;99.90
41447;DHT22;27185;52.040;4.490;2022-10-22T18:10:23;16.20;99.90
41447;DHT22;27185;52.040;4.490;2022-10-22T18:13:08;16.10;99.90
41447;DHT22;27185;52.040;4.490;2022-10-22T18:15:55;16.10;99.90
41447;DHT22;27185;52.040;4.490;2022-10-22T18:18:47;16.10;99.90
41447;DHT22;27185;52.040;4.490;2022-10-22T18:21:33;16.00;99.90
41447;DHT22;27185;52.040;4.490;2022-10-22T18:24:19;16.00;99.90
41447;DHT22;27185;52.040;4.490;2022-10-22T18:27:04;16.00;99.90
41447;DHT22;27185;52.040;4.490;2022-10-22T18:29:50;16.00;99.90
41447;DHT22;27185;52.040;4.490;2022-10-22T18:32:36;15.90;99.90
41447;DHT22;27185;52.040;4.490;2022-10-22T18:35:21;15.90;99.90
41447;DHT22;27185;52.040;4.490;2022-10-22T18:38:08;15.90;99.90
41447;DHT22;27185;52.040;4.490;2022-10-22T18:40:54;15.80;99.90
41447;DHT22;27185;52.040;4.490;2022-10-22T18:43:39;15.80;99.90
41447;DHT22;27185;52.040;4.490;2022-10-22T18:46:26;15.80;99.90
41447;DHT22;27185;52.040;4.490;2022-10-22T18:49:16;15.70;99.90
41447;DHT22;27185;52.040;4.490;2022-10-22T18:52:05;15.70;99.90
41447;DHT22;27185;52.040;4.490;2022-10-22T18:54:51;15.60;99.90
41447;DHT22;27185;52.040;4.490;2022-10-22T18:57:36;15.60;99.90
41447;DHT22;27185;52.040;4.490;2022-10-22T19:00:22;15.60;99.90
41447;DHT22;27185;52.040;4.490;2022-10-22T19:03:10;15.60;99.90
41447;DHT22;27185;52.040;4.490;2022-10-22T19:05:57;15.60;99.90
41447;DHT22;27185;52.040;4.490;2022-10-22T19:08:44;15.50;99.90
41447;DHT22;27185;52.040;4.490;2022-10-22T19:11:32;15.50;99.90
41447;DHT22;27185;52.040;4.490;2022-10-22T19:14:17;15.50;99.90
41447;DHT22;27185;52.040;4.490;2022-10-22T19:17:05;15.50;99.90
41447;DHT22;27185;52.040;4.490;2022-10-22T19:19:50;15.50;99.90
41447;DHT22;27185;52.040;4.490;2022-10-22T19:22:36;15.50;99.90